createdAt,value
2018-12-06T00:01:17.542Z,10.30
2018-12-06T00:03:45.888Z,10.10
2018-12-06T00:06:14.840Z,10.17
2018-12-06T00:08:43.220Z,10.07
2018-12-06T00:11:11.505Z,10.20
2018-12-06T00:13:39.855Z,10.07
2018-12-06T00:16:08.147Z,10.53
2018-12-06T00:18:36.499Z,10.27
2018-12-06T00:21:04.784Z,9.93
2018-12-06T00:23:33.235Z,10.13
2018-12-06T00:26:01.519Z,10.57
2018-12-06T00:28:36.277Z,11.20
2018-12-06T00:31:04.614Z,11.13
2018-12-06T00:33:32.879Z,12.43
2018-12-06T00:36:01.179Z,10.77
2018-12-06T00:38:29.475Z,11.03
2018-12-06T00:40:57.761Z,11.50
2018-12-06T00:43:26.127Z,11.53
2018-12-06T00:45:54.628Z,11.30
2018-12-06T00:48:22.895Z,12.10
2018-12-06T00:50:51.173Z,11.83
2018-12-06T00:53:19.781Z,11.43
2018-12-06T00:55:48.057Z,11.27
2018-12-06T00:58:16.323Z,11.97
2018-12-06T01:00:44.594Z,11.20
2018-12-06T01:03:13.157Z,11.77
2018-12-06T01:05:41.403Z,11.33
2018-12-06T01:08:09.767Z,11.10
2018-12-06T01:10:38.032Z,11.33
2018-12-06T01:13:06.279Z,11.10
2018-12-06T01:15:34.735Z,11.67
2018-12-06T01:18:02.991Z,11.10
2018-12-06T01:20:31.275Z,10.67
2018-12-06T01:22:59.639Z,11.07
2018-12-06T01:25:27.923Z,11.00
2018-12-06T01:27:56.175Z,10.83
2018-12-06T01:30:24.467Z,10.60
2018-12-06T01:32:52.725Z,10.97
2018-12-06T01:35:21.073Z,10.47
2018-12-06T01:37:49.419Z,10.47
2018-12-06T01:40:17.671Z,11.13
2018-12-06T01:42:46.619Z,10.27
2018-12-06T01:45:15.069Z,11.10
2018-12-06T01:47:43.358Z,10.10
2018-12-06T01:50:11.712Z,11.10
2018-12-06T01:52:40.068Z,10.93
2018-12-06T01:55:08.539Z,10.47
2018-12-06T01:57:36.778Z,10.90
2018-12-06T02:00:06.270Z,11.50
2018-12-06T02:02:34.550Z,10.27
2018-12-06T02:05:03.003Z,11.80
2018-12-06T02:07:31.348Z,10.83
2018-12-06T02:09:59.619Z,10.93
2018-12-06T02:12:27.890Z,11.33
2018-12-06T02:14:56.299Z,11.30
2018-12-06T02:17:24.560Z,10.97
2018-12-06T02:19:52.831Z,10.83
2018-12-06T02:22:21.083Z,11.43
2018-12-06T02:24:49.365Z,11.00
2018-12-06T02:27:17.722Z,11.67
2018-12-06T02:29:51.479Z,10.43
2018-12-06T02:32:19.748Z,10.00
2018-12-06T02:34:48.107Z,11.20
2018-12-06T02:37:16.384Z,10.80
2018-12-06T02:39:44.653Z,10.27
2018-12-06T02:42:13.019Z,10.50
2018-12-06T02:44:41.313Z,10.27
2018-12-06T02:47:09.587Z,10.43
2018-12-06T02:49:37.869Z,10.67
2018-12-06T02:52:14.383Z,10.00
2018-12-06T02:54:42.657Z,10.60
2018-12-06T02:57:10.992Z,10.53
2018-12-06T02:59:39.579Z,9.77
2018-12-06T03:02:07.863Z,10.10
2018-12-06T03:04:36.096Z,10.93
2018-12-06T03:07:04.552Z,10.53
2018-12-06T03:09:32.811Z,12.27
2018-12-06T03:12:01.085Z,12.13
2018-12-06T03:14:29.430Z,11.50
2018-12-06T03:16:57.687Z,12.37
2018-12-06T03:19:26.054Z,11.90
2018-12-06T03:21:54.508Z,12.20
2018-12-06T03:24:22.967Z,12.87
2018-12-06T03:26:51.195Z,12.87
2018-12-06T03:29:19.565Z,12.93
2018-12-06T03:31:47.892Z,13.37
2018-12-06T03:34:16.218Z,13.23
2018-12-06T03:36:44.540Z,13.63
2018-12-06T03:39:12.811Z,13.63
2018-12-06T03:41:41.419Z,15.53
2018-12-06T03:44:16.896Z,14.20
2018-12-06T03:46:45.182Z,14.13
2018-12-06T03:49:13.535Z,15.40
2018-12-06T03:51:41.848Z,13.77
2018-12-06T03:54:10.116Z,12.27
2018-12-06T03:56:38.447Z,12.63
2018-12-06T03:59:06.753Z,13.70
2018-12-06T04:01:35.062Z,13.20
2018-12-06T04:04:03.328Z,13.63
2018-12-06T04:06:31.661Z,12.37
2018-12-06T04:08:59.899Z,14.10
2018-12-06T04:11:28.241Z,13.10
2018-12-06T04:13:56.615Z,14.17
2018-12-06T04:16:24.913Z,12.93
2018-12-06T04:18:53.425Z,12.70
2018-12-06T04:21:21.812Z,13.53
2018-12-06T04:23:50.155Z,14.43
2018-12-06T04:26:18.443Z,13.97
2018-12-06T04:28:46.724Z,14.10
2018-12-06T04:31:15.077Z,15.50
2018-12-06T04:33:43.416Z,13.10
2018-12-06T04:36:11.695Z,14.73
2018-12-06T04:38:40.024Z,14.70
2018-12-06T04:41:08.383Z,15.67
2018-12-06T04:43:36.800Z,13.77
2018-12-06T04:46:05.152Z,15.30
2018-12-06T04:48:33.533Z,15.27
2018-12-06T04:51:01.811Z,16.03
2018-12-06T04:53:30.091Z,15.13
2018-12-06T04:55:58.410Z,15.30
2018-12-06T04:58:26.777Z,15.87
2018-12-06T05:00:55.165Z,15.80
2018-12-06T05:03:23.435Z,16.63
2018-12-06T05:05:51.739Z,15.70
2018-12-06T05:08:20.015Z,16.47
2018-12-06T05:10:48.305Z,16.63
2018-12-06T05:13:16.656Z,16.50
2018-12-06T05:15:45.031Z,16.40
2018-12-06T05:18:13.319Z,17.37
2018-12-06T05:20:41.672Z,17.23
2018-12-06T05:23:09.945Z,17.10
2018-12-06T05:25:38.288Z,17.53
2018-12-06T05:28:06.567Z,18.50
2018-12-06T05:30:35.116Z,22.03
2018-12-06T05:33:03.384Z,20.60
2018-12-06T05:35:31.751Z,24.50
2018-12-06T05:38:00.031Z,22.90
2018-12-06T05:40:28.288Z,23.70
2018-12-06T05:42:57.552Z,25.37
2018-12-06T05:45:26.003Z,25.40
2018-12-06T05:47:54.312Z,27.13
2018-12-06T05:50:22.755Z,26.63
2018-12-06T05:52:51.096Z,28.03
2018-12-06T05:55:19.412Z,31.20
2018-12-06T05:57:48.280Z,30.30
2018-12-06T06:00:17.911Z,28.33
2018-12-06T06:02:46.186Z,30.70
2018-12-06T06:05:14.603Z,29.50
2018-12-06T06:07:42.915Z,29.50
2018-12-06T06:10:11.176Z,28.40
2018-12-06T06:12:39.461Z,31.23
2018-12-06T06:15:07.812Z,28.93
2018-12-06T06:17:36.114Z,30.13
2018-12-06T06:20:05.980Z,30.00
2018-12-06T06:22:34.283Z,28.03
2018-12-06T06:25:02.817Z,29.70
2018-12-06T06:27:31.147Z,30.53
2018-12-06T06:30:00.147Z,30.17
2018-12-06T06:32:28.448Z,29.90
2018-12-06T06:34:56.848Z,30.70
2018-12-06T06:37:25.262Z,31.07
2018-12-06T06:39:53.555Z,32.37
2018-12-06T06:42:21.869Z,30.37
2018-12-06T06:44:50.149Z,31.83
2018-12-06T06:47:18.495Z,30.43
2018-12-06T06:49:46.859Z,31.57
2018-12-06T06:52:15.240Z,29.77
2018-12-06T06:54:43.620Z,29.03
2018-12-06T06:57:11.941Z,28.23
2018-12-06T06:59:40.307Z,28.47
2018-12-06T07:02:08.681Z,28.97
2018-12-06T07:04:37.023Z,28.90
2018-12-06T07:07:05.355Z,30.00
2018-12-06T07:09:33.746Z,27.70
2018-12-06T07:12:02.103Z,27.60
2018-12-06T07:14:30.385Z,26.37
2018-12-06T07:16:58.840Z,24.53
2018-12-06T07:19:27.123Z,25.37
2018-12-06T07:21:55.398Z,24.73
2018-12-06T07:24:23.777Z,24.03
2018-12-06T07:26:52.169Z,22.37
2018-12-06T07:29:20.443Z,22.30
2018-12-06T07:31:48.975Z,23.03
2018-12-06T07:34:17.727Z,21.73
2018-12-06T07:36:46.111Z,23.20
2018-12-06T07:39:14.379Z,23.63
2018-12-06T07:41:42.995Z,22.90
2018-12-06T07:44:11.252Z,23.43
2018-12-06T07:46:39.617Z,21.80
2018-12-06T07:49:07.959Z,19.97
2018-12-06T07:51:36.270Z,22.93
2018-12-06T07:54:04.692Z,20.07
2018-12-06T07:56:32.948Z,20.63
2018-12-06T07:59:01.212Z,21.63
2018-12-06T08:01:29.452Z,21.67
2018-12-06T08:03:57.703Z,20.13
2018-12-06T08:06:25.985Z,20.07
2018-12-06T08:08:54.248Z,21.23
2018-12-06T08:11:22.539Z,21.90
2018-12-06T08:13:50.836Z,23.43
2018-12-06T08:16:19.148Z,24.80
2018-12-06T08:18:47.547Z,24.13
2018-12-06T08:21:16.013Z,24.23
2018-12-06T08:23:44.283Z,26.57
2018-12-06T08:26:12.527Z,25.37
2018-12-06T08:28:40.784Z,27.57
2018-12-06T08:31:09.123Z,27.33
2018-12-06T08:33:37.515Z,26.77
2018-12-06T08:36:05.850Z,27.20
2018-12-06T08:38:34.203Z,26.07
2018-12-06T08:41:02.478Z,27.20
2018-12-06T08:43:31.833Z,25.90
2018-12-06T08:46:00.203Z,25.60
2018-12-06T08:48:28.499Z,25.00
2018-12-06T08:50:57.111Z,26.17
2018-12-06T08:53:26.095Z,25.87
2018-12-06T08:55:54.467Z,28.07
2018-12-06T08:58:23.068Z,28.43
2018-12-06T09:00:51.351Z,28.87
2018-12-06T09:03:19.632Z,27.23
2018-12-06T09:05:47.932Z,25.97
2018-12-06T09:08:16.347Z,28.17
2018-12-06T09:10:51.352Z,27.13
2018-12-06T09:13:14.979Z,30.13
2018-12-06T09:15:43.319Z,29.07
2018-12-06T09:18:11.591Z,30.13
2018-12-06T09:20:39.915Z,31.23
2018-12-06T09:23:08.595Z,31.37
2018-12-06T09:25:36.968Z,32.17
2018-12-06T09:28:05.244Z,31.93
2018-12-06T09:30:33.689Z,33.47
2018-12-06T09:33:02.072Z,34.10
2018-12-06T09:35:30.372Z,34.70
2018-12-06T09:37:58.725Z,33.53
2018-12-06T09:40:27.156Z,34.43
2018-12-06T09:42:55.548Z,36.00
2018-12-06T09:45:23.786Z,34.93
2018-12-06T09:47:52.275Z,35.83
2018-12-06T09:50:20.605Z,35.50
2018-12-06T09:52:49.036Z,35.37
2018-12-06T09:55:17.420Z,34.17
2018-12-06T09:57:45.775Z,34.67
2018-12-06T10:00:16.385Z,33.97
2018-12-06T10:02:44.760Z,34.30
2018-12-06T10:05:13.251Z,35.17
2018-12-06T10:07:42.246Z,36.10
2018-12-06T10:10:10.754Z,34.93
2018-12-06T10:12:39.132Z,35.03
2018-12-06T10:15:07.947Z,33.80
2018-12-06T10:17:36.232Z,31.13
2018-12-06T10:20:06.548Z,30.03
2018-12-06T10:22:35.319Z,29.70
2018-12-06T10:25:03.900Z,29.90
2018-12-06T10:27:32.187Z,29.27
2018-12-06T10:30:00.466Z,27.53
2018-12-06T10:32:28.867Z,29.40
2018-12-06T10:34:57.158Z,28.40
2018-12-06T10:37:25.500Z,28.67
2018-12-06T10:39:53.861Z,28.63
2018-12-06T10:42:22.211Z,27.10
2018-12-06T10:44:50.932Z,27.73
2018-12-06T10:47:19.248Z,27.30
2018-12-06T10:49:47.499Z,28.23
2018-12-06T10:52:15.787Z,29.03
2018-12-06T10:54:44.087Z,28.17
2018-12-06T10:57:12.488Z,28.33
2018-12-06T10:59:40.813Z,31.57
2018-12-06T11:02:14.672Z,30.17
2018-12-06T11:04:42.998Z,30.37
2018-12-06T11:07:11.399Z,31.73
2018-12-06T11:09:39.756Z,31.37
2018-12-06T11:12:08.101Z,32.80
2018-12-06T11:14:36.355Z,31.80
2018-12-06T11:17:04.808Z,32.50
2018-12-06T11:19:33.206Z,32.50
2018-12-06T11:22:01.684Z,32.53
2018-12-06T11:24:30.040Z,32.20
2018-12-06T11:26:58.399Z,31.00
2018-12-06T11:29:26.746Z,31.30
2018-12-06T11:31:55.101Z,32.90
2018-12-06T11:34:23.420Z,33.87
2018-12-06T11:36:51.795Z,34.27
2018-12-06T11:39:20.087Z,34.93
2018-12-06T11:41:48.486Z,36.17
2018-12-06T11:44:16.832Z,35.30
2018-12-06T11:46:45.324Z,36.47
2018-12-06T11:49:13.637Z,38.00
2018-12-06T11:51:41.911Z,40.53
2018-12-06T11:54:10.217Z,38.07
2018-12-06T11:56:38.519Z,39.20
2018-12-06T11:59:06.779Z,37.90
2018-12-06T12:01:35.226Z,39.37
2018-12-06T12:04:03.720Z,37.33
2018-12-06T12:06:32.821Z,36.27
2018-12-06T12:09:01.117Z,35.83
2018-12-06T12:11:29.546Z,33.27
2018-12-06T12:13:57.912Z,35.83
2018-12-06T12:16:26.252Z,34.70
2018-12-06T12:18:54.832Z,34.17
2018-12-06T12:21:23.204Z,33.23
2018-12-06T12:23:51.511Z,31.50
2018-12-06T12:26:20.088Z,31.83
2018-12-06T12:28:48.344Z,33.90
2018-12-06T12:31:16.795Z,29.80
2018-12-06T12:33:45.159Z,30.07
2018-12-06T12:36:14.224Z,28.63
2018-12-06T12:38:42.600Z,29.57
2018-12-06T12:41:10.947Z,28.60
2018-12-06T12:43:39.610Z,27.27
2018-12-06T12:46:07.931Z,29.50
2018-12-06T12:48:36.342Z,29.03
2018-12-06T12:51:04.616Z,25.80
2018-12-06T12:53:32.905Z,26.07
2018-12-06T12:56:01.269Z,20.93
2018-12-06T12:58:29.632Z,24.43
2018-12-06T13:00:57.988Z,22.57
2018-12-06T13:03:26.373Z,21.27
2018-12-06T13:05:54.713Z,23.03
2018-12-06T13:08:23.053Z,22.97
2018-12-06T13:10:51.452Z,23.47
2018-12-06T13:13:19.740Z,23.73
2018-12-06T13:15:47.999Z,22.33
2018-12-06T13:18:16.380Z,23.33
2018-12-06T13:20:44.632Z,21.60
2018-12-06T13:23:12.928Z,22.20
2018-12-06T13:25:41.204Z,20.30
2018-12-06T13:28:09.474Z,20.67
2018-12-06T13:30:38.003Z,20.30
2018-12-06T13:33:06.396Z,18.47
2018-12-06T13:35:34.724Z,19.07
2018-12-06T13:38:03.069Z,19.17
2018-12-06T13:40:31.420Z,18.33
2018-12-06T13:43:00.047Z,18.70
2018-12-06T13:45:28.595Z,18.03
2018-12-06T13:47:57.188Z,16.37
2018-12-06T13:50:25.560Z,18.13
2018-12-06T13:52:53.864Z,17.23
2018-12-06T13:55:22.209Z,17.63
2018-12-06T13:57:50.546Z,17.83
2018-12-06T14:00:18.859Z,16.17
2018-12-06T14:02:47.308Z,16.57
2018-12-06T14:05:15.655Z,17.00
2018-12-06T14:07:44.020Z,16.20
2018-12-06T14:10:12.503Z,16.97
2018-12-06T14:12:40.790Z,15.03
2018-12-06T14:15:09.373Z,14.80
2018-12-06T14:17:37.692Z,13.53
2018-12-06T14:20:07.841Z,13.87
2018-12-06T14:22:36.243Z,14.93
2018-12-06T14:25:05.791Z,15.10
2018-12-06T14:27:34.095Z,13.93
2018-12-06T14:30:02.394Z,15.00
2018-12-06T14:32:30.781Z,14.30
2018-12-06T14:34:59.117Z,14.47
2018-12-06T14:37:27.547Z,13.63
2018-12-06T14:39:56.346Z,13.73
2018-12-06T14:42:24.713Z,14.20
2018-12-06T14:44:53.011Z,13.90
2018-12-06T14:47:21.395Z,14.90
2018-12-06T14:49:49.753Z,14.67
2018-12-06T14:52:18.232Z,14.57
2018-12-06T14:54:46.583Z,14.00
2018-12-06T14:57:15.196Z,14.03
2018-12-06T14:59:43.476Z,14.03
2018-12-06T15:02:11.840Z,14.07
2018-12-06T15:04:40.276Z,13.27
2018-12-06T15:07:08.605Z,15.07
2018-12-06T15:09:36.895Z,14.33
2018-12-06T15:12:05.279Z,12.53
2018-12-06T15:14:33.666Z,13.13
2018-12-06T15:17:02.036Z,11.50
2018-12-06T15:19:30.331Z,12.13
2018-12-06T15:21:58.791Z,12.17
2018-12-06T15:24:27.183Z,12.60
2018-12-06T15:27:27.901Z,14.03
2018-12-06T15:29:56.556Z,14.07
2018-12-06T15:32:24.875Z,15.63
2018-12-06T15:34:53.264Z,14.60
2018-12-06T15:37:21.641Z,13.33
2018-12-06T15:39:50.099Z,14.03
2018-12-06T15:42:18.400Z,12.43
2018-12-06T15:44:46.739Z,12.57
2018-12-06T15:47:15.148Z,13.07
2018-12-06T15:49:43.467Z,12.37
2018-12-06T15:52:11.780Z,12.50
2018-12-06T15:54:40.113Z,12.63
2018-12-06T15:57:20.827Z,11.40
2018-12-06T15:59:49.175Z,12.40
2018-12-06T16:02:17.655Z,14.38
2018-12-06T16:04:46.010Z,11.67
2018-12-06T16:07:14.462Z,11.03
2018-12-06T16:09:42.752Z,10.87
2018-12-06T16:12:11.105Z,10.70
2018-12-06T16:14:51.215Z,11.70
2018-12-06T16:17:19.535Z,10.17
2018-12-06T16:19:49.536Z,11.53
2018-12-06T16:22:18.127Z,10.70
2018-12-06T16:24:46.378Z,11.53
2018-12-06T16:27:15.272Z,10.73
2018-12-06T16:29:51.207Z,11.85
2018-12-06T16:32:13.856Z,9.63
2018-12-06T16:34:42.081Z,9.03
2018-12-06T16:37:10.470Z,10.40
2018-12-06T16:39:39.036Z,9.77
2018-12-06T16:42:07.349Z,11.50
2018-12-06T16:44:35.647Z,11.13
2018-12-06T16:47:11.471Z,10.23
2018-12-06T16:49:40.195Z,10.63
2018-12-06T16:52:08.675Z,11.65
2018-12-06T16:54:36.984Z,10.83
2018-12-06T16:57:05.302Z,11.00
2018-12-06T16:59:33.622Z,11.17
2018-12-06T17:02:02.107Z,11.17
2018-12-06T17:04:34.452Z,10.70
2018-12-06T17:07:02.832Z,10.83
2018-12-06T17:09:31.143Z,10.40
2018-12-06T17:11:59.463Z,10.40
2018-12-06T17:14:28.005Z,11.23
2018-12-06T17:16:56.303Z,11.80
2018-12-06T17:19:25.085Z,10.50
2018-12-06T17:21:53.492Z,10.97
2018-12-06T17:24:21.800Z,9.90
2018-12-06T17:26:50.140Z,9.90
2018-12-06T17:29:18.464Z,9.87
2018-12-06T17:31:46.740Z,10.10
2018-12-06T17:34:15.071Z,11.40
2018-12-06T17:36:43.553Z,10.63
2018-12-06T17:39:11.872Z,13.53
2018-12-06T17:41:40.258Z,10.43
2018-12-06T17:44:08.841Z,9.97
2018-12-06T17:46:37.268Z,10.90
2018-12-06T17:49:05.576Z,10.93
2018-12-06T17:51:33.945Z,10.23
2018-12-06T17:54:02.312Z,11.07
2018-12-06T17:56:31.116Z,10.53
2018-12-06T17:58:59.412Z,10.17
2018-12-06T18:01:28.410Z,9.77
2018-12-06T18:03:56.966Z,11.27
2018-12-06T18:06:25.489Z,10.07
2018-12-06T18:08:53.794Z,10.50
2018-12-06T18:11:22.121Z,10.20
2018-12-06T18:13:50.496Z,11.70
2018-12-06T18:16:19.752Z,9.93
2018-12-06T18:18:48.196Z,11.30
2018-12-06T18:21:17.883Z,9.60
2018-12-06T18:26:39.325Z,9.03
2018-12-06T18:29:07.636Z,9.23
2018-12-06T18:31:36.027Z,10.30
2018-12-06T18:34:04.652Z,10.90
2018-12-06T18:36:33.157Z,10.10
2018-12-06T18:39:01.544Z,9.37
2018-12-06T18:41:29.840Z,9.87
2018-12-06T18:43:58.168Z,10.00
2018-12-06T18:46:26.636Z,9.67
2018-12-06T18:48:56.390Z,9.60
2018-12-06T18:51:24.771Z,9.53
2018-12-06T18:53:53.447Z,9.87
2018-12-06T18:56:21.888Z,9.67
2018-12-06T18:58:50.355Z,9.40
2018-12-06T19:01:18.746Z,9.50
2018-12-06T19:03:51.097Z,10.17
2018-12-06T19:06:19.636Z,8.23
2018-12-06T19:08:48.133Z,10.80
2018-12-06T19:11:16.506Z,9.40
2018-12-06T19:13:45.088Z,10.97
2018-12-06T19:16:13.179Z,10.50
2018-12-06T19:18:59.174Z,10.23
2018-12-06T19:21:46.779Z,9.83
2018-12-06T19:24:17.504Z,10.80
2018-12-06T19:26:46.811Z,11.13
2018-12-06T19:29:21.706Z,11.63
2018-12-06T19:31:50.233Z,11.73
2018-12-06T19:34:18.521Z,12.30
2018-12-06T19:36:46.910Z,13.60
2018-12-06T19:39:15.618Z,14.53
2018-12-06T19:41:44.042Z,15.30
2018-12-06T19:44:14.219Z,14.63
2018-12-06T19:46:42.556Z,15.27
2018-12-06T19:49:19.297Z,15.57
2018-12-06T19:52:12.289Z,15.37
2018-12-06T19:54:41.427Z,17.03
2018-12-06T19:57:09.677Z,17.20
2018-12-06T19:59:38.128Z,16.53
2018-12-06T20:02:06.796Z,17.13
2018-12-06T20:05:03.486Z,16.40
2018-12-06T20:07:32.700Z,16.60
2018-12-06T20:10:20.342Z,15.60
2018-12-06T20:13:22.201Z,15.67
2018-12-06T20:16:29.773Z,16.77
2018-12-06T20:19:02.430Z,17.83
2018-12-06T20:21:31.729Z,16.93
2018-12-06T20:24:00.344Z,16.87
2018-12-06T20:26:30.673Z,18.63
2018-12-06T20:28:59.887Z,17.33
2018-12-06T20:31:31.143Z,16.50
2018-12-06T20:34:00.960Z,17.83
2018-12-06T20:36:50.144Z,18.07
2018-12-06T20:39:19.217Z,17.13
2018-12-06T20:41:47.686Z,16.27
2018-12-06T20:44:16.283Z,17.40
2018-12-06T20:46:45.328Z,19.17
2018-12-06T20:49:13.725Z,18.20
2018-12-06T20:51:42.501Z,17.03
2018-12-06T20:54:10.828Z,17.07
2018-12-06T20:56:39.208Z,17.70
2018-12-06T20:59:07.596Z,18.17
2018-12-06T21:01:38.963Z,20.33
2018-12-06T21:04:08.745Z,17.67
2018-12-06T21:06:37.334Z,18.00
2018-12-06T21:09:07.650Z,20.50
2018-12-06T21:14:33.489Z,19.53
2018-12-06T21:17:02.097Z,20.17
2018-12-06T21:19:31.107Z,19.97
2018-12-06T21:21:59.736Z,19.23
2018-12-06T21:24:33.601Z,19.10
2018-12-06T21:27:01.957Z,18.77
2018-12-06T21:29:30.304Z,19.67
2018-12-06T21:31:58.774Z,18.37
2018-12-06T21:34:28.465Z,19.47
2018-12-06T21:36:57.709Z,19.10
2018-12-06T21:39:26.155Z,19.00
2018-12-06T21:41:55.846Z,20.33
2018-12-06T21:44:24.874Z,19.77
2018-12-06T21:46:56.653Z,20.13
2018-12-06T21:49:24.954Z,20.13
2018-12-06T21:51:53.302Z,20.90
2018-12-06T21:54:21.844Z,20.60
2018-12-06T21:56:50.128Z,21.23
2018-12-06T21:59:18.423Z,21.43
2018-12-06T22:01:46.730Z,20.40
2018-12-06T22:04:15.142Z,19.83
2018-12-06T22:06:43.475Z,19.37
2018-12-06T22:09:11.996Z,19.70
2018-12-06T22:11:40.432Z,18.00
2018-12-06T22:14:08.786Z,18.37
2018-12-06T22:16:37.736Z,19.63
2018-12-06T22:19:09.235Z,17.97
2018-12-06T22:21:37.596Z,17.40
2018-12-06T22:24:06.097Z,19.10
2018-12-06T22:26:34.353Z,18.67
2018-12-06T22:29:04.879Z,18.83
2018-12-06T22:31:33.275Z,19.13
2018-12-06T22:34:01.601Z,19.20
2018-12-06T22:36:29.895Z,19.27
2018-12-06T22:38:58.652Z,19.13
2018-12-06T22:41:27.135Z,19.63
2018-12-06T22:43:55.477Z,19.13
2018-12-06T22:46:23.808Z,20.83
2018-12-06T22:48:52.241Z,20.40
2018-12-06T22:51:24.216Z,20.83
2018-12-06T22:53:51.079Z,20.53
2018-12-06T22:56:19.443Z,20.87
2018-12-06T22:58:47.828Z,19.70
2018-12-06T23:01:18.195Z,21.27
2018-12-06T23:03:46.522Z,19.87
2018-12-06T23:06:15.330Z,19.80
2018-12-06T23:08:43.719Z,19.90
2018-12-06T23:11:12.367Z,20.73
2018-12-06T23:13:40.767Z,20.47
2018-12-06T23:16:09.045Z,22.43
2018-12-06T23:18:37.315Z,21.97
2018-12-06T23:21:05.751Z,23.10
2018-12-06T23:23:34.104Z,25.57
2018-12-06T23:26:02.364Z,23.50
2018-12-06T23:28:30.833Z,22.77
2018-12-06T23:30:59.174Z,19.73
2018-12-06T23:33:31.939Z,21.57
2018-12-06T23:35:57.732Z,19.30
2018-12-06T23:38:26.330Z,20.00
2018-12-06T23:40:54.593Z,21.73
2018-12-06T23:43:23.512Z,22.10
2018-12-06T23:45:51.783Z,21.40
2018-12-06T23:48:20.266Z,21.70
2018-12-06T23:50:49.713Z,20.00
2018-12-06T23:53:18.050Z,19.33
2018-12-06T23:55:46.428Z,18.30
2018-12-06T23:58:14.725Z,19.70
